Time;durP1;ratioP1;P1;durP2;ratioP2;P2;SDS_P1;SDS_P2;PMS_P1;PMS_P2;Temp;Humidity;BMP_temperature;BMP_pressure;BME280_temperature;BME280_humidity;BME280_pressure;Samples;Min_cycle;Max_cycle;Signal;HPM_P1;HPM_P2
2024/02/16 00:00:24;;;;;;;1953.82;967.50;;;;;;;21.68;42.57;100953.28;5020657;28;20037;-82
2024/02/16 00:02:49;;;;;;;1957.80;970.67;;;;;;;22.02;42.67;100996.84;5021021;28;20041;-82
2024/02/16 00:05:15;;;;;;;1963.25;971.72;;;;;;;21.87;42.49;100972.22;5018859;28;20033;-82
2024/02/16 00:07:41;;;;;;;1959.00;979.17;;;;;;;22.01;42.56;100988.06;5023455;28;20137;-82
2024/02/16 00:10:07;;;;;;;1939.15;935.88;;;;;;;22.02;42.55;100983.59;5015017;28;20038;-82
2024/02/16 00:12:33;;;;;;;1974.38;999.90;;;;;;;22.00;42.34;100981.13;5022321;28;20044;-82
2024/02/16 00:14:59;;;;;;;1982.05;999.90;;;;;;;21.98;42.62;100988.47;5022630;28;20077;-82
2024/02/16 00:17:28;;;;;;;1976.25;999.90;;;;;;;21.97;42.62;100988.66;5023897;28;20065;-82
2024/02/16 00:19:55;;;;;;;1979.90;999.90;;;;;;;21.79;42.87;100970.53;5021021;28;20536;-82
2024/02/16 00:22:20;;;;;;;1973.35;999.88;;;;;;;21.39;42.67;100901.25;5010224;28;20053;-82
2024/02/16 00:24:47;;;;;;;1982.45;999.90;;;;;;;21.93;42.47;100985.56;5024943;28;20048;-81
2024/02/16 00:27:13;;;;;;;1961.00;999.55;;;;;;;21.81;42.78;100960.56;5024735;28;20132;-82
2024/02/16 00:29:39;;;;;;;1918.65;995.80;;;;;;;21.91;42.88;100974.34;5023450;28;20171;-82
2024/02/16 00:32:08;;;;;;;1909.30;965.47;;;;;;;21.93;42.61;100971.50;5022341;28;20105;-81
2024/02/16 00:34:36;;;;;;;1913.68;978.20;;;;;;;21.80;42.56;100958.91;5022870;28;20911;-82
2024/02/16 00:37:11;;;;;;;1916.43;984.20;;;;;;;21.61;42.73;100935.69;5016270;28;20146;-82
2024/02/16 00:39:37;;;;;;;1921.13;979.20;;;;;;;21.89;42.51;100971.03;5023409;28;20041;-82
2024/02/16 00:42:03;;;;;;;1925.55;969.17;;;;;;;21.79;42.70;100957.28;5020328;28;20362;-82
2024/02/16 00:44:28;;;;;;;1964.70;979.47;;;;;;;21.77;42.39;100955.84;5025676;28;20033;-81
2024/02/16 00:46:54;;;;;;;1953.47;972.67;;;;;;;21.86;42.88;100965.28;5027393;28;20044;-81
2024/02/16 00:49:19;;;;;;;1952.57;968.60;;;;;;;21.75;42.51;100936.66;5021659;28;20405;-82
2024/02/16 00:51:45;;;;;;;1948.38;970.67;;;;;;;21.63;42.60;100923.91;5026561;28;20045;-82
2024/02/16 00:54:10;;;;;;;1948.80;974.47;;;;;;;21.83;42.76;100968.31;5024005;28;20158;-82
2024/02/16 00:56:36;;;;;;;1950.60;967.15;;;;;;;21.69;42.53;100943.50;5021564;28;20428;-82
2024/02/16 00:59:02;;;;;;;1954.93;998.92;;;;;;;21.67;42.80;100941.06;5025608;28;20042;-83
2024/02/16 01:01:28;;;;;;;1952.25;990.20;;;;;;;21.70;42.50;100953.91;5022468;28;20049;-82
2024/02/16 01:03:53;;;;;;;1948.45;988.63;;;;;;;21.59;42.69;100930.59;5009719;28;20110;-81
2024/02/16 01:06:19;;;;;;;1946.18;991.15;;;;;;;21.52;42.77;100923.56;5023506;28;20048;-82
2024/02/16 01:08:46;;;;;;;1961.13;999.90;;;;;;;21.77;42.73;100961.13;5024625;28;20470;-82
2024/02/16 01:11:12;;;;;;;1955.47;999.88;;;;;;;21.75;42.80;100956.03;5025419;28;21793;-81
2024/02/16 01:13:38;;;;;;;1956.05;999.78;;;;;;;21.69;42.90;100943.50;5026493;28;20037;-83
2024/02/16 01:16:04;;;;;;;1941.95;996.55;;;;;;;21.75;42.61;100948.06;5027330;28;20658;-84
2024/02/16 01:18:30;;;;;;;1944.00;990.65;;;;;;;21.67;42.44;100927.81;5020495;28;20084;-83
2024/02/16 01:20:56;;;;;;;1910.65;979.55;;;;;;;21.71;42.69;100934.34;5023694;28;20037;-82
2024/02/16 01:23:21;;;;;;;1874.82;972.72;;;;;;;21.58;42.71;100915.69;5026472;28;20824;-82
2024/02/16 01:25:48;;;;;;;1885.93;975.85;;;;;;;21.62;42.88;100922.25;5022598;28;20218;-82
2024/02/16 01:28:13;;;;;;;1881.78;980.30;;;;;;;21.48;42.88;100887.88;5025940;28;20651;-82
2024/02/16 01:30:40;;;;;;;1878.90;965.90;;;;;;;20.66;42.59;100764.59;5027071;28;20029;-82
2024/02/16 01:33:06;;;;;;;1866.35;963.50;;;;;;;21.60;42.92;100913.69;5020385;28;20030;-82
2024/02/16 01:35:35;;;;;;;1882.40;969.42;;;;;;;21.66;42.90;100918.22;5026082;28;20041;-82
2024/02/16 01:38:03;;;;;;;1894.30;973.28;;;;;;;21.67;42.69;100917.19;5022852;28;20120;-83
2024/02/16 01:40:29;;;;;;;1929.65;987.13;;;;;;;21.60;42.55;100908.38;5024928;28;20136;-82
2024/02/16 01:42:54;;;;;;;1922.50;991.38;;;;;;;21.27;42.57;100857.72;5021267;28;21370;-82
2024/02/16 01:45:20;;;;;;;1930.25;999.58;;;;;;;21.65;42.66;100921.06;5023746;28;20429;-82
2024/02/16 01:47:51;;;;;;;1919.72;989.85;;;;;;;21.53;42.83;100899.53;5022533;28;20069;-81
2024/02/16 01:50:18;;;;;;;1924.60;991.38;;;;;;;21.55;42.80;100902.84;5024456;28;20462;-82
2024/02/16 01:52:46;;;;;;;1929.22;988.85;;;;;;;21.60;42.75;100923.47;5018399;28;20993;-82
2024/02/16 01:55:12;;;;;;;1909.30;981.15;;;;;;;21.36;42.74;100885.72;5023184;28;20374;-82
2024/02/16 01:57:40;;;;;;;1924.47;991.05;;;;;;;21.61;42.93;100922.44;4984653;28;20542;-82
2024/02/16 02:00:07;;;;;;;1932.97;998.33;;;;;;;21.39;42.80;100881.88;5026213;28;20040;-82
2024/02/16 02:02:36;;;;;;;1914.25;979.33;;;;;;;21.52;42.69;100903.19;5006282;28;20379;-82
2024/02/16 02:05:06;;;;;;;1919.35;981.90;;;;;;;21.34;42.71;100871.81;5034499;28;20620;-82
2024/02/16 02:07:32;;;;;;;1930.85;994.33;;;;;;;21.56;42.59;100909.78;5024387;28;20627;-82
2024/02/16 02:09:58;;;;;;;1923.15;991.05;;;;;;;21.57;42.53;100905.28;5022376;28;20068;-82
2024/02/16 02:12:24;;;;;;;1924.45;987.88;;;;;;;21.55;42.56;100902.00;5024726;28;20067;-82
2024/02/16 02:14:50;;;;;;;1916.90;989.97;;;;;;;21.54;42.68;100898.50;5019700;28;20106;-82
2024/02/16 02:17:17;;;;;;;1922.70;999.90;;;;;;;21.25;42.77;100841.19;5028177;28;20056;-82
2024/02/16 02:19:42;;;;;;;1912.93;998.00;;;;;;;21.21;42.79;100842.56;5023551;28;20064;-82
2024/02/16 02:22:18;;;;;;;1919.40;990.40;;;;;;;21.53;42.58;100888.09;5020924;28;20042;-82
2024/02/16 02:24:47;;;;;;;1915.20;991.63;;;;;;;20.71;42.46;100758.72;5023324;28;20152;-82
2024/02/16 02:27:13;;;;;;;1922.72;996.95;;;;;;;21.25;42.85;100843.03;5019285;28;20049;-82
2024/02/16 02:29:39;;;;;;;1904.82;986.60;;;;;;;21.49;42.56;100884.19;5023492;28;20465;-82
2024/02/16 02:32:05;;;;;;;1883.93;979.10;;;;;;;21.30;42.71;100851.22;5022273;28;20044;-82
2024/02/16 02:34:31;;;;;;;1860.22;974.95;;;;;;;21.29;42.65;100860.16;5021796;28;20040;-82
2024/02/16 02:36:57;;;;;;;1857.50;967.97;;;;;;;21.47;42.70;100872.97;5005809;28;20436;-82
2024/02/16 02:39:23;;;;;;;1870.60;973.70;;;;;;;21.28;42.86;100846.09;5004864;28;20369;-82
2024/02/16 02:41:48;;;;;;;1861.63;926.40;;;;;;;21.27;42.61;100843.66;5013980;28;20053;-82
2024/02/16 02:44:14;;;;;;;1917.10;944.38;;;;;;;21.44;43.07;100868.88;5019247;28;20045;-82
2024/02/16 02:46:40;;;;;;;1906.95;936.78;;;;;;;21.44;42.89;100873.34;5021290;28;20056;-82
2024/02/16 02:49:05;;;;;;;1906.20;936.55;;;;;;;21.41;42.79;100858.66;5021281;28;20049;-82
2024/02/16 02:51:31;;;;;;;1901.93;939.83;;;;;;;21.41;42.88;100862.13;5020257;28;20045;-82
2024/02/16 02:53:56;;;;;;;1901.18;969.47;;;;;;;21.36;42.92;100853.94;5015613;28;20708;-82
2024/02/16 02:56:22;;;;;;;1915.45;976.03;;;;;;;21.41;42.78;100861.31;5020599;28;20682;-82
2024/02/16 02:58:47;;;;;;;1931.70;987.10;;;;;;;21.27;42.67;100830.41;5018142;28;20204;-82
2024/02/16 03:01:13;;;;;;;1915.88;976.28;;;;;;;21.40;42.90;100849.09;5022977;28;20041;-82
2024/02/16 03:03:40;;;;;;;1928.90;976.28;;;;;;;21.19;42.90;100825.22;5022086;28;20458;-81
2024/02/16 03:06:07;;;;;;;1920.10;969.72;;;;;;;21.39;42.85;100852.75;5020895;28;20045;-82
2024/02/16 03:08:33;;;;;;;1898.45;958.20;;;;;;;21.27;42.69;100833.88;5021703;28;20037;-81
2024/02/16 03:11:00;;;;;;;1914.25;962.17;;;;;;;21.29;42.68;100837.16;5020210;28;20065;-82
2024/02/16 03:13:26;;;;;;;1914.78;964.53;;;;;;;21.35;42.93;100851.47;5022043;28;20033;-81
2024/02/16 03:15:52;;;;;;;1907.60;957.83;;;;;;;21.16;42.91;100817.63;5022931;28;20450;-82
2024/02/16 03:18:21;;;;;;;1912.60;960.55;;;;;;;21.21;42.88;100839.09;5017455;28;20572;-82
2024/02/16 03:20:48;;;;;;;1920.80;972.42;;;;;;;21.34;42.82;100852.47;5020494;28;20041;-82
2024/02/16 03:23:14;;;;;;;1906.70;962.40;;;;;;;21.34;42.85;100847.16;5021245;28;20545;-82
2024/02/16 03:25:40;;;;;;;1893.30;952.20;;;;;;;21.26;43.07;100842.81;5022947;28;20124;-81
2024/02/16 03:28:07;;;;;;;1904.68;959.78;;;;;;;21.28;42.74;100832.03;5018656;28;20099;-81
2024/02/16 03:30:34;;;;;;;1923.78;969.88;;;;;;;21.30;42.71;100841.44;5018985;28;20359;-81
2024/02/16 03:32:59;;;;;;;1925.20;972.63;;;;;;;21.15;42.79;100816.81;5021860;28;20048;-81
2024/02/16 03:35:26;;;;;;;1888.45;962.38;;;;;;;21.09;42.71;100804.31;5020440;28;20041;-82
2024/02/16 03:37:52;;;;;;;1893.55;958.80;;;;;;;21.21;42.95;100826.66;5006741;28;20056;-81
2024/02/16 03:40:18;;;;;;;1907.13;969.90;;;;;;;21.28;42.93;100832.88;5022352;28;20037;-82
2024/02/16 03:42:43;;;;;;;1921.50;981.78;;;;;;;21.27;42.76;100833.06;5015451;28;20430;-82
2024/02/16 03:45:09;;;;;;;1914.70;974.45;;;;;;;21.27;42.98;100838.34;5033911;28;20042;-81
2024/02/16 03:47:35;;;;;;;1918.07;977.47;;;;;;;21.26;42.74;100834.88;5019641;28;20092;-81
2024/02/16 03:50:01;;;;;;;1923.45;986.03;;;;;;;21.22;42.80;100830.13;5017772;28;20064;-81
2024/02/16 03:52:27;;;;;;;1916.05;982.38;;;;;;;21.27;42.57;100835.69;5014169;28;20048;-81
2024/02/16 03:54:52;;;;;;;1916.85;984.85;;;;;;;21.26;42.96;100820.81;5026882;28;20123;-81
2024/02/16 03:57:18;;;;;;;1916.72;974.88;;;;;;;21.25;42.63;100833.25;5019133;28;20136;-81
2024/02/16 03:59:43;;;;;;;1920.20;994.15;;;;;;;20.99;42.67;100793.22;5013442;28;20045;-81
2024/02/16 04:02:10;;;;;;;1911.53;990.20;;;;;;;21.23;42.71;100845.00;5021416;28;20095;-81
2024/02/16 04:04:35;;;;;;;1915.25;995.08;;;;;;;21.24;42.67;100852.78;5020898;28;20048;-81
2024/02/16 04:07:01;;;;;;;1936.13;999.90;;;;;;;21.17;42.65;100821.91;5019262;28;20041;-81
2024/02/16 04:09:27;;;;;;;1943.85;999.90;;;;;;;21.22;42.79;100828.31;5018380;28;20034;-81
2024/02/16 04:11:52;;;;;;;1932.20;999.90;;;;;;;21.22;42.91;100824.84;5017107;28;20253;-82
2024/02/16 04:14:18;;;;;;;1933.57;999.90;;;;;;;21.21;43.02;100831.97;5017604;28;20076;-81
2024/02/16 04:16:44;;;;;;;1927.57;999.90;;;;;;;21.15;42.63;100813.34;5014836;28;20041;-81
2024/02/16 04:19:10;;;;;;;1937.95;999.90;;;;;;;21.22;42.90;100819.53;5023002;28;20041;-81
2024/02/16 04:21:35;;;;;;;1935.82;999.90;;;;;;;20.99;42.91;100779.97;5018937;28;20961;-82
2024/02/16 04:24:01;;;;;;;1932.68;999.90;;;;;;;21.09;42.92;100817.56;5021068;28;20056;-82
2024/02/16 04:26:26;;;;;;;1925.88;999.90;;;;;;;21.16;42.97;100822.91;5002315;28;20060;-81
2024/02/16 04:28:52;;;;;;;1920.68;999.90;;;;;;;21.18;42.95;100815.59;5022751;28;20038;-82
2024/02/16 04:31:17;;;;;;;1923.60;999.90;;;;;;;21.17;42.78;100824.56;5018772;28;20030;-82
2024/02/16 04:33:43;;;;;;;1926.85;999.90;;;;;;;21.10;42.76;100820.03;5019507;28;20392;-82
2024/02/16 04:36:08;;;;;;;1930.03;999.90;;;;;;;20.86;42.90;100782.50;5024056;28;20049;-82
2024/02/16 04:38:34;;;;;;;1912.43;999.17;;;;;;;21.03;43.07;100799.78;5020931;28;20037;-82
2024/02/16 04:41:00;;;;;;;1935.22;999.90;;;;;;;21.15;42.93;100813.34;5015840;28;20046;-81
2024/02/16 04:43:25;;;;;;;1931.63;999.90;;;;;;;21.13;42.74;100824.94;5018558;28;20231;-82
2024/02/16 04:45:51;;;;;;;1921.50;999.90;;;;;;;21.03;42.89;100805.09;5018552;28;20042;-82
2024/02/16 04:48:16;;;;;;;1923.35;999.90;;;;;;;21.08;42.57;100821.22;5016626;28;20046;-82
2024/02/16 04:50:42;;;;;;;1929.43;999.90;;;;;;;21.02;42.73;100796.31;5020016;28;20047;-82
2024/02/16 04:53:07;;;;;;;1925.32;999.90;;;;;;;20.74;42.68;100761.00;5016816;28;20459;-82
2024/02/16 04:55:33;;;;;;;1931.60;999.90;;;;;;;21.12;42.75;100828.59;5023424;28;20041;-81
2024/02/16 04:57:59;;;;;;;1917.82;999.90;;;;;;;21.11;43.00;100826.97;5004436;28;20045;-81
2024/02/16 05:00:24;;;;;;;1920.18;999.90;;;;;;;20.81;42.64;100775.09;5025229;28;20136;-81
2024/02/16 05:02:52;;;;;;;1906.97;999.22;;;;;;;21.06;42.89;100817.94;5021330;28;20044;-81
2024/02/16 05:05:18;;;;;;;1903.13;989.78;;;;;;;21.08;42.70;100835.28;5024316;28;20080;-80
2024/02/16 05:07:48;;;;;;;1893.93;982.10;;;;;;;21.08;42.72;100815.94;5022724;28;20037;-81
2024/02/16 05:10:14;;;;;;;1899.50;987.83;;;;;;;20.98;42.85;100810.09;5026139;28;20033;-81
2024/02/16 05:12:41;;;;;;;1906.47;991.00;;;;;;;20.71;43.10;100756.91;5023962;28;20053;-81
2024/02/16 05:15:07;;;;;;;1912.70;986.40;;;;;;;20.92;42.92;100801.09;5022865;28;20037;-82
2024/02/16 05:17:32;;;;;;;1896.28;981.30;;;;;;;21.06;42.75;100818.75;5003373;28;20569;-81
2024/02/16 05:19:58;;;;;;;1903.88;983.55;;;;;;;21.05;42.79;100821.59;5026390;28;20037;-81
2024/02/16 05:22:23;;;;;;;1909.55;989.50;;;;;;;20.94;42.97;100799.06;5010400;28;20045;-80
2024/02/16 05:24:49;;;;;;;1907.93;985.65;;;;;;;21.06;42.75;100810.81;5022034;28;20875;-81
2024/02/16 05:27:14;;;;;;;1913.57;992.63;;;;;;;20.89;42.86;100793.53;5022893;28;20033;-81
2024/02/16 05:29:40;;;;;;;1915.50;992.28;;;;;;;21.05;42.81;100817.13;5025727;28;20401;-81
2024/02/16 05:32:06;;;;;;;1913.25;996.72;;;;;;;20.94;42.72;100799.06;5027778;28;20123;-82
2024/02/16 05:34:37;;;;;;;1925.60;999.90;;;;;;;20.96;42.89;100801.53;4987310;28;20037;-82
2024/02/16 05:37:06;;;;;;;1922.70;999.90;;;;;;;21.04;42.75;100812.03;5021138;28;20033;-82
2024/02/16 05:39:53;;;;;;;1908.70;999.90;;;;;;;20.70;42.95;100755.25;5024639;28;20075;-82
2024/02/16 05:42:21;;;;;;;1901.03;998.60;;;;;;;20.92;42.57;100785.22;5022194;28;21196;-81
2024/02/16 05:44:46;;;;;;;1911.35;999.90;;;;;;;20.81;43.05;100767.16;5019202;28;20131;-82
2024/02/16 05:47:12;;;;;;;1908.78;999.90;;;;;;;20.85;42.73;100767.63;5023561;28;20442;-81
2024/02/16 05:49:38;;;;;;;1903.55;999.90;;;;;;;21.04;42.90;100807.56;5009311;28;20059;-82
2024/02/16 05:52:17;;;;;;;1902.18;999.90;;;;;;;21.02;42.61;100811.41;5023894;28;20164;-82
2024/02/16 05:54:48;;;;;;;1901.88;999.90;;;;;;;20.91;42.91;100793.34;5020673;28;20046;-81
2024/02/16 05:57:14;;;;;;;1903.00;999.90;;;;;;;20.96;43.00;100801.53;5020027;28;20041;-82
2024/02/16 05:59:41;;;;;;;1903.53;999.90;;;;;;;21.00;42.70;100797.50;5020409;28;20549;-82
2024/02/16 06:02:07;;;;;;;1889.00;999.90;;;;;;;20.81;42.88;100759.22;5022370;28;20051;-81
2024/02/16 06:04:36;;;;;;;1896.75;999.90;;;;;;;20.81;42.75;100757.41;5020806;28;20045;-82
2024/02/16 06:07:01;;;;;;;1893.13;999.90;;;;;;;20.96;42.94;100767.94;5023449;28;20056;-81
2024/02/16 06:09:33;;;;;;;1896.22;999.90;;;;;;;21.01;43.05;100778.81;5022537;28;21778;-79
2024/02/16 06:12:03;;;;;;;1899.93;999.90;;;;;;;20.99;42.70;100777.31;5022343;28;20760;-81
2024/02/16 06:14:30;;;;;;;1897.63;999.90;;;;;;;20.84;42.85;100750.94;5022954;28;20037;-81
2024/02/16 06:16:55;;;;;;;1890.22;999.90;;;;;;;21.01;42.93;100778.00;5025036;28;20045;-81
2024/02/16 06:19:21;;;;;;;1901.47;999.90;;;;;;;21.01;42.73;100781.44;5019142;28;20049;-82
2024/02/16 06:21:46;;;;;;;1899.57;999.90;;;;;;;21.02;42.91;100782.28;5000938;28;20755;-81
2024/02/16 06:24:12;;;;;;;1882.65;999.90;;;;;;;20.93;42.82;100775.44;5024193;28;20054;-81
2024/02/16 06:26:37;;;;;;;1869.55;999.90;;;;;;;21.00;42.74;100778.97;4997115;28;20064;-81
2024/02/16 06:29:03;;;;;;;1887.43;999.90;;;;;;;21.00;42.86;100784.25;5026516;28;20041;-81
2024/02/16 06:31:28;;;;;;;1892.18;997.88;;;;;;;21.00;42.70;100782.44;5022176;28;20045;-81
2024/02/16 06:33:54;;;;;;;1888.05;999.90;;;;;;;21.00;42.88;100790.38;5019689;28;20042;-81
2024/02/16 06:36:19;;;;;;;1894.75;999.90;;;;;;;20.88;43.00;100775.19;5022827;28;20278;-81
2024/02/16 06:38:45;;;;;;;1896.60;999.90;;;;;;;20.89;42.79;100782.94;5023354;28;20050;-81
2024/02/16 06:41:12;;;;;;;1892.15;999.90;;;;;;;20.90;42.99;100775.81;5019987;28;20052;-81
2024/02/16 06:43:38;;;;;;;1877.35;999.90;;;;;;;21.00;42.94;100789.56;5020710;28;20060;-82
2024/02/16 06:46:04;;;;;;;1903.75;999.90;;;;;;;20.52;43.06;100725.75;5018044;28;20059;-81
2024/02/16 06:48:30;;;;;;;1879.43;999.90;;;;;;;20.99;42.82;100795.84;5023308;28;20256;-81
2024/02/16 06:50:56;;;;;;;1886.90;999.90;;;;;;;20.94;42.92;100793.78;5027344;28;20041;-81
2024/02/16 06:53:21;;;;;;;1890.32;999.90;;;;;;;20.98;42.75;100800.34;5018214;28;20034;-81
2024/02/16 06:55:47;;;;;;;1885.85;999.90;;;;;;;20.99;43.06;100801.97;5033253;28;20573;-81
2024/02/16 06:58:12;;;;;;;1907.28;999.90;;;;;;;20.99;42.90;100801.16;5021276;28;20033;-81
2024/02/16 07:00:38;;;;;;;1899.13;999.90;;;;;;;20.99;42.92;100809.09;5028222;28;20765;-82
2024/02/16 07:03:06;;;;;;;1899.45;999.90;;;;;;;20.99;42.92;100812.56;5022856;28;20520;-82
2024/02/16 07:05:32;;;;;;;1904.72;999.90;;;;;;;20.71;43.00;100762.19;5019149;28;20049;-81
2024/02/16 07:07:58;;;;;;;1914.50;999.90;;;;;;;20.99;43.12;100817.03;5023464;28;20061;-81
2024/02/16 07:10:24;;;;;;;1907.88;999.90;;;;;;;20.80;42.79;100799.94;5023047;28;20052;-81
2024/02/16 07:12:49;;;;;;;1896.57;999.90;;;;;;;20.86;43.09;100811.63;5021271;28;20037;-81
2024/02/16 07:15:15;;;;;;;1899.72;999.90;;;;;;;20.73;42.64;100789.28;5023154;28;20473;-81
2024/02/16 07:17:40;;;;;;;1884.22;999.90;;;;;;;20.76;42.70;100788.91;4989675;28;20046;-81
2024/02/16 07:20:06;;;;;;;1875.75;999.90;;;;;;;20.97;42.93;100827.81;5024359;28;20052;-80
2024/02/16 07:22:33;;;;;;;1884.97;999.90;;;;;;;21.00;43.04;100829.25;5018521;28;20044;-82
2024/02/16 07:25:03;;;;;;;1892.60;999.90;;;;;;;20.98;42.93;100832.09;5020447;28;20121;-82
2024/02/16 07:27:29;;;;;;;1889.03;999.90;;;;;;;20.98;42.79;100834.75;5020075;28;20041;-82
2024/02/16 07:29:54;;;;;;;1878.53;999.90;;;;;;;20.93;42.78;100823.91;5006130;28;20050;-82
2024/02/16 07:32:20;;;;;;;1883.20;999.90;;;;;;;20.97;42.81;100833.13;5005435;28;20044;-82
2024/02/16 07:34:47;;;;;;;1885.20;999.90;;;;;;;20.85;42.97;100817.94;5002415;28;20038;-82
2024/02/16 07:37:13;;;;;;;1878.72;999.90;;;;;;;20.70;43.11;100812.66;5020349;28;20041;-82
2024/02/16 07:39:40;;;;;;;1884.68;999.90;;;;;;;20.99;42.59;100849.63;5020657;28;20665;-82
2024/02/16 07:42:09;;;;;;;1887.82;999.90;;;;;;;21.03;44.21;100844.81;5020954;28;20347;-82
2024/02/16 07:44:36;;;;;;;1888.72;999.90;;;;;;;21.00;43.57;100843.31;5013387;28;20046;-83
2024/02/16 07:47:02;;;;;;;1882.68;999.90;;;;;;;20.85;43.52;100834.63;5023624;28;20098;-82
2024/02/16 07:49:27;;;;;;;1882.63;999.90;;;;;;;21.02;43.23;100841.34;5014240;28;20042;-81
2024/02/16 07:51:53;;;;;;;1875.43;999.90;;;;;;;21.15;43.30;100835.34;5017496;28;20145;-81
2024/02/16 07:54:18;;;;;;;1885.38;999.90;;;;;;;21.34;42.60;100842.69;5011023;28;20816;-80
2024/02/16 07:56:44;;;;;;;1882.25;999.90;;;;;;;21.34;42.57;100831.28;5018478;28;20040;-79
2024/02/16 07:59:10;;;;;;;1890.00;999.90;;;;;;;21.45;42.38;100843.22;5003108;28;20041;-79
2024/02/16 08:01:35;;;;;;;1884.78;999.90;;;;;;;21.32;42.62;100825.34;5018649;28;20040;-79
2024/02/16 08:04:01;;;;;;;1891.82;999.90;;;;;;;21.46;42.50;100847.50;5017398;28;20040;-79
2024/02/16 08:06:27;;;;;;;1897.20;999.90;;;;;;;21.24;42.71;100817.50;5022358;28;20481;-79
2024/02/16 08:08:53;;;;;;;1890.15;999.90;;;;;;;21.44;42.67;100852.16;5019194;28;20048;-80
2024/02/16 08:11:20;;;;;;;1891.15;999.90;;;;;;;21.44;42.69;100842.38;5024589;28;20487;-79
2024/02/16 08:13:46;;;;;;;1893.00;999.90;;;;;;;21.48;42.55;100850.78;5019577;28;20065;-79
2024/02/16 08:16:12;;;;;;;1890.68;999.90;;;;;;;21.46;42.23;100843.00;5022484;28;20055;-80
2024/02/16 08:18:37;;;;;;;1896.72;999.90;;;;;;;21.46;42.22;100848.31;5020949;28;20041;-80
2024/02/16 08:21:03;;;;;;;1909.55;999.90;;;;;;;21.45;42.65;100854.63;5021605;28;20030;-80
2024/02/16 08:23:28;;;;;;;1904.10;999.90;;;;;;;21.28;42.43;100829.41;5018465;28;20041;-79
2024/02/16 08:25:54;;;;;;;1887.65;999.90;;;;;;;21.39;42.43;100850.91;5020016;28;20129;-79
2024/02/16 08:28:19;;;;;;;1856.35;999.90;;;;;;;21.44;42.50;100854.81;5020561;28;20075;-80
2024/02/16 08:30:45;;;;;;;1850.18;999.90;;;;;;;21.42;42.56;100850.53;4983954;28;20046;-79
2024/02/16 08:33:12;;;;;;;1853.97;999.90;;;;;;;21.42;42.34;100844.41;5016272;28;20037;-79
2024/02/16 08:35:39;;;;;;;1862.88;999.90;;;;;;;21.34;42.58;100848.00;5020217;28;20459;-82
2024/02/16 08:38:04;;;;;;;1875.72;999.90;;;;;;;21.38;42.74;100864.34;5021238;28;20075;-82
2024/02/16 08:40:30;;;;;;;1889.00;999.90;;;;;;;21.40;42.69;100855.19;5022905;28;20053;-82
2024/02/16 08:42:55;;;;;;;1877.88;999.90;;;;;;;21.28;42.72;100848.75;5017998;28;20064;-81
2024/02/16 08:45:21;;;;;;;1891.90;999.90;;;;;;;21.39;42.69;100863.34;5024647;28;20045;-82
2024/02/16 08:47:46;;;;;;;1899.80;999.90;;;;;;;21.39;42.47;100871.28;5023962;28;20116;-81
2024/02/16 08:50:12;;;;;;;1919.63;999.90;;;;;;;21.08;42.46;100821.22;5022464;28;20477;-81
2024/02/16 08:52:38;;;;;;;1907.88;999.90;;;;;;;21.19;42.69;100846.41;5020480;28;20033;-81
2024/02/16 08:55:04;;;;;;;1908.13;999.90;;;;;;;21.35;42.38;100873.47;5027047;28;20045;-81
2024/02/16 08:57:31;;;;;;;1912.15;999.90;;;;;;;21.05;42.41;100829.53;5025634;28;20132;-82
2024/02/16 08:59:57;;;;;;;1932.15;999.90;;;;;;;21.36;42.53;100888.38;5026169;28;20064;-80
2024/02/16 09:02:22;;;;;;;1905.60;999.90;;;;;;;21.35;42.56;100889.34;5025217;28;20041;-81
2024/02/16 09:04:48;;;;;;;1903.38;999.90;;;;;;;21.00;42.61;100839.84;5026683;28;20041;-81
2024/02/16 09:07:14;;;;;;;1894.85;999.90;;;;;;;21.32;42.31;100887.09;5025162;28;20049;-81
2024/02/16 09:09:39;;;;;;;1908.55;999.90;;;;;;;21.19;42.36;100871.06;5025867;28;20056;-81
2024/02/16 09:12:05;;;;;;;1889.40;999.90;;;;;;;21.29;42.52;100890.13;5030136;28;20056;-81
2024/02/16 09:14:31;;;;;;;1894.03;999.90;;;;;;;21.30;42.41;100889.09;5020493;28;20038;-81
2024/02/16 09:16:57;;;;;;;1894.38;999.90;;;;;;;21.33;42.37;100904.63;5020122;28;20056;-81
2024/02/16 09:19:23;;;;;;;1898.78;999.90;;;;;;;21.31;42.86;100905.81;5024390;28;20108;-81
2024/02/16 09:21:54;;;;;;;1904.65;999.90;;;;;;;21.20;42.76;100885.94;5023258;28;20041;-81
2024/02/16 09:24:20;;;;;;;1953.57;999.90;;;;;;;21.26;42.42;100893.16;5018499;28;20085;-83
2024/02/16 09:26:46;;;;;;;1927.90;999.90;;;;;;;21.10;42.61;100856.28;5022348;28;20064;-81
2024/02/16 09:29:13;;;;;;;1897.22;999.90;;;;;;;21.60;42.01;100903.06;4981660;28;20025;-82
2024/02/16 09:31:40;;;;;;;1899.95;999.90;;;;;;;20.71;41.60;100762.19;5015804;28;20481;-83
2024/02/16 09:34:06;;;;;;;1892.68;999.90;;;;;;;21.93;41.42;100876.03;5022134;28;20470;-83
2024/02/16 09:36:32;;;;;;;1889.82;999.90;;;;;;;22.82;40.63;100927.50;5023537;28;20044;-84
2024/02/16 09:38:58;;;;;;;1890.75;999.90;;;;;;;23.09;39.24;100856.69;5021554;28;20041;-84
2024/02/16 09:41:23;;;;;;;1862.28;999.90;;;;;;;23.33;39.34;100897.00;5024267;28;20041;-84
2024/02/16 09:43:48;;;;;;;1852.47;999.90;;;;;;;23.45;39.62;100929.94;4966472;28;20517;-85
2024/02/16 09:46:16;;;;;;;1851.85;999.90;;;;;;;23.16;39.77;100899.19;5022130;28;21408;-83
2024/02/16 09:48:48;;;;;;;1853.35;999.90;;;;;;;23.35;39.95;100927.69;4996069;28;20037;-83
2024/02/16 09:51:14;;;;;;;1835.47;999.90;;;;;;;23.09;40.36;100911.66;5022131;28;20038;-84
2024/02/16 09:53:40;;;;;;;1836.47;999.90;;;;;;;23.00;40.13;100876.50;5011166;28;20037;-88
2024/02/16 09:56:08;;;;;;;1845.53;999.90;;;;;;;22.95;40.19;100860.31;5020000;28;20060;-87
2024/02/16 09:58:35;;;;;;;1844.15;999.90;;;;;;;23.44;40.50;100945.06;4973296;28;20454;-85
2024/02/16 10:01:00;;;;;;;1892.25;999.90;;;;;;;23.38;40.69;100939.75;5023731;28;20485;-87
2024/02/16 10:03:28;;;;;;;1892.88;999.90;;;;;;;22.99;41.11;100916.53;4990055;28;20053;-85
2024/02/16 10:06:12;;;;;;;1890.22;999.90;;;;;;;22.98;41.32;100955.56;5015162;28;20041;-82
2024/02/16 10:08:49;;;;;;;1882.78;999.90;;;;;;;23.02;41.30;100951.47;4985271;28;20116;-86
2024/02/16 10:11:15;;;;;;;1887.28;999.90;;;;;;;23.00;41.32;100960.66;5029299;28;20524;-85
2024/02/16 10:13:40;;;;;;;1895.55;999.90;;;;;;;23.00;41.22;100958.81;5018944;28;20048;-81
2024/02/16 10:16:08;;;;;;;1895.90;999.90;;;;;;;23.04;41.28;100964.56;4991532;28;20035;-82
2024/02/16 10:18:36;;;;;;;1892.65;999.90;;;;;;;22.67;41.52;100920.63;5021811;28;20775;-82
2024/02/16 10:21:01;;;;;;;1918.28;999.90;;;;;;;23.00;41.45;100973.94;4982344;28;21040;-82
2024/02/16 10:23:27;;;;;;;1900.25;999.90;;;;;;;22.85;41.49;100955.47;5015257;28;20075;-82
2024/02/16 10:25:54;;;;;;;1931.22;999.90;;;;;;;23.03;41.61;100974.38;4980903;28;20068;-85
2024/02/16 10:28:26;;;;;;;1919.15;999.90;;;;;;;23.08;41.41;100997.66;5020271;28;20690;-82
2024/02/16 10:30:53;;;;;;;1925.18;999.90;;;;;;;23.05;41.60;100977.63;5018285;28;20066;-82
2024/02/16 10:33:19;;;;;;;1925.22;999.90;;;;;;;22.89;41.44;100970.81;5019292;28;20573;-85
2024/02/16 10:35:46;;;;;;;1939.38;999.90;;;;;;;22.87;41.73;100980.81;5021920;28;20053;-85
2024/02/16 10:38:13;;;;;;;1950.80;999.90;;;;;;;22.84;41.50;100986.53;5016746;28;20037;-86
2024/02/16 10:40:40;;;;;;;1959.28;999.90;;;;;;;22.85;41.67;100990.00;4971643;28;20045;-85
2024/02/16 10:43:06;;;;;;;1963.90;999.90;;;;;;;22.84;41.65;100991.00;5016838;28;20092;-85